Time;durP1;ratioP1;P1;durP2;ratioP2;P2;SDS_P1;SDS_P2;PMS_P1;PMS_P2;Temp;Humidity;BMP_temperature;BMP_pressure;BME280_temperature;BME280_humidity;BME280_pressure;Samples;Min_cycle;Max_cycle;Signal;HPM_P1;HPM_P2
2023/02/17 00:00:59;;;;;;;40.03;22.15;;;7.30;99.90;;;-148.53;100.00;63986.66;5009040;28;20050;-74
2023/02/17 00:03:25;;;;;;;40.95;22.20;;;7.40;99.90;;;-148.53;100.00;63986.66;5006224;28;20363;-74
2023/02/17 00:05:51;;;;;;;41.45;22.90;;;7.40;99.90;;;-148.53;100.00;63986.66;5002877;28;20045;-74
2023/02/17 00:08:17;;;;;;;39.20;23.58;;;7.50;99.90;;;-148.53;100.00;63986.66;5011709;28;20038;-74
2023/02/17 00:10:43;;;;;;;39.88;22.50;;;7.50;99.90;;;-148.53;100.00;63986.66;5011955;28;20045;-74
2023/02/17 00:13:09;;;;;;;34.08;20.48;;;7.50;99.90;;;-148.53;100.00;63986.66;5001331;28;20117;-74
2023/02/17 00:15:38;;;;;;;35.83;22.33;;;7.70;99.90;;;-148.53;100.00;63986.66;5015536;28;20049;-74
2023/02/17 00:18:04;;;;;;;37.13;21.80;;;7.70;99.90;;;-148.53;100.00;63986.66;4995591;28;20485;-74
2023/02/17 00:20:29;;;;;;;38.63;21.58;;;7.80;99.90;;;-148.53;100.00;63986.66;5010471;28;20492;-73
2023/02/17 00:22:55;;;;;;;33.97;19.88;;;7.80;99.90;;;-148.53;100.00;63986.66;5002831;28;20066;-73
2023/02/17 00:25:21;;;;;;;35.97;21.90;;;7.90;99.90;;;-148.53;100.00;63986.66;4999706;28;20041;-74
2023/02/17 00:27:46;;;;;;;31.67;20.10;;;8.00;99.90;;;-148.53;100.00;63986.66;5004327;28;20386;-74
2023/02/17 00:30:12;;;;;;;28.27;19.15;;;8.00;99.90;;;-148.53;100.00;63986.66;5006711;28;20035;-74
2023/02/17 00:32:38;;;;;;;32.88;19.52;;;8.20;99.90;;;-148.53;100.00;63986.66;5008240;28;20174;-74
2023/02/17 00:35:04;;;;;;;31.52;19.65;;;8.20;99.90;;;-148.53;100.00;63986.66;5010507;28;20056;-74
2023/02/17 00:37:33;;;;;;;30.95;19.60;;;8.30;99.90;;;-148.53;100.00;63986.66;5001653;28;20498;-74
2023/02/17 00:40:00;;;;;;;32.70;20.65;;;8.30;99.90;;;-148.53;100.00;63986.66;4993871;28;20125;-74
2023/02/17 00:42:26;;;;;;;30.73;19.25;;;8.30;99.90;;;-148.53;100.00;63986.66;5005967;28;20044;-74
2023/02/17 00:44:51;;;;;;;34.50;21.40;;;8.30;99.90;;;-148.53;100.00;63986.66;5009624;28;20030;-74
2023/02/17 00:47:19;;;;;;;30.47;20.17;;;8.40;99.90;;;-148.53;100.00;63986.66;5011525;28;20532;-74
2023/02/17 00:49:46;;;;;;;30.03;19.07;;;8.40;99.90;;;-148.53;100.00;63986.66;5002116;28;20318;-74
2023/02/17 00:52:12;;;;;;;31.77;20.63;;;8.40;99.90;;;-148.53;100.00;63986.66;5005746;28;20405;-73
2023/02/17 00:54:38;;;;;;;30.98;20.52;;;8.40;99.90;;;-148.53;100.00;63986.66;5002933;28;20084;-73
2023/02/17 00:57:04;;;;;;;29.25;19.67;;;8.40;99.90;;;-148.53;100.00;63986.66;5006566;28;20041;-74
2023/02/17 00:59:30;;;;;;;29.50;19.02;;;8.40;99.90;;;-148.53;100.00;63986.66;5000464;28;20121;-73
2023/02/17 01:01:56;;;;;;;33.42;19.52;;;8.40;99.90;;;-148.53;100.00;63986.66;5009290;28;20037;-73
2023/02/17 01:04:22;;;;;;;32.05;19.85;;;8.40;99.90;;;-148.53;100.00;63986.66;4999852;28;20030;-73
2023/02/17 01:06:48;;;;;;;29.63;19.15;;;8.40;99.90;;;-148.53;100.00;63986.66;5000790;28;20061;-74
2023/02/17 01:09:14;;;;;;;28.98;18.73;;;8.40;99.90;;;-148.53;100.00;63986.66;5006123;28;20040;-74
2023/02/17 01:11:41;;;;;;;28.70;19.77;;;8.50;99.90;;;-148.53;100.00;63986.66;5009748;28;20559;-73
2023/02/17 01:14:06;;;;;;;31.25;19.40;;;8.50;99.90;;;-148.53;100.00;63986.66;4995366;28;20088;-73
2023/02/17 01:16:37;;;;;;;27.73;18.48;;;8.50;99.90;;;-148.53;100.00;63986.66;5008149;28;20033;-74
2023/02/17 01:19:10;;;;;;;29.77;19.30;;;8.60;99.90;;;-148.53;100.00;63986.66;5009376;28;20049;-74
2023/02/17 01:21:36;;;;;;;28.90;19.45;;;8.60;99.90;;;-148.53;100.00;63986.66;4993048;28;20138;-73
2023/02/17 01:24:06;;;;;;;29.30;19.27;;;8.60;99.90;;;-148.53;100.00;63986.66;5002333;28;20041;-74
2023/02/17 01:26:35;;;;;;;27.48;19.27;;;8.60;99.90;;;-148.53;100.00;63986.66;4997177;28;20026;-74
2023/02/17 01:29:04;;;;;;;28.95;19.00;;;8.60;99.90;;;-148.53;100.00;63986.66;5002876;28;20586;-74
2023/02/17 01:31:30;;;;;;;26.70;18.38;;;8.60;99.90;;;-148.53;100.00;63986.66;4998579;28;20074;-74
2023/02/17 01:33:59;;;;;;;26.98;17.88;;;8.60;99.90;;;-148.53;100.00;63986.66;5000861;28;20243;-74
2023/02/17 01:36:26;;;;;;;25.70;17.60;;;8.70;99.90;;;-148.53;100.00;63986.66;5000465;28;20407;-74
2023/02/17 01:38:52;;;;;;;24.80;17.42;;;8.70;99.90;;;-148.53;100.00;63986.66;5009259;28;20338;-74
2023/02/17 01:41:21;;;;;;;24.20;17.02;;;8.70;99.90;;;-148.53;100.00;63986.66;5002835;28;20181;-74
2023/02/17 01:44:23;;;;;;;26.98;18.77;;;8.70;99.90;;;-148.53;100.00;63986.66;4999560;28;20042;-73
2023/02/17 01:46:54;;;;;;;24.30;16.92;;;8.80;99.90;;;-148.53;100.00;63986.66;5000059;28;20096;-73
2023/02/17 01:49:35;;;;;;;24.20;16.98;;;8.80;99.90;;;-148.53;100.00;63986.66;5007773;28;20033;-73
2023/02/17 01:52:09;;;;;;;26.15;17.95;;;8.90;99.90;;;-148.53;100.00;63986.66;5013555;28;20164;-73
2023/02/17 01:54:52;;;;;;;26.15;17.48;;;8.90;99.90;;;-148.53;100.00;63986.66;5004101;28;20046;-73
2023/02/17 01:57:25;;;;;;;26.52;17.23;;;8.90;99.90;;;-148.53;100.00;63986.66;4989347;28;20037;-73
2023/02/17 01:59:52;;;;;;;24.58;17.48;;;8.90;99.90;;;-148.53;100.00;63986.66;4997963;28;20030;-73
2023/02/17 02:02:18;;;;;;;24.35;17.38;;;8.90;99.90;;;-148.53;100.00;63986.66;5000359;28;20505;-72
2023/02/17 02:04:50;;;;;;;23.88;16.90;;;9.00;99.90;;;-148.53;100.00;63986.66;4992800;28;20040;-73
2023/02/17 02:07:27;;;;;;;24.38;16.88;;;9.00;99.90;;;-148.53;100.00;63986.66;4992036;28;20477;-73
2023/02/17 02:09:56;;;;;;;25.08;17.35;;;9.00;99.90;;;-148.53;100.00;63986.66;5008318;28;20046;-73
2023/02/17 02:12:29;;;;;;;24.60;17.58;;;9.10;99.90;;;-148.53;100.00;63986.66;4993913;28;20034;-74
2023/02/17 02:15:00;;;;;;;24.95;17.58;;;9.10;99.90;;;-148.53;100.00;63986.66;4997496;28;20053;-75
2023/02/17 02:18:07;;;;;;;24.50;17.38;;;9.10;99.90;;;-148.53;100.00;63986.66;5004342;28;20041;-75
2023/02/17 02:21:11;;;;;;;24.90;17.77;;;9.10;99.90;;;-148.53;100.00;63986.66;5010327;28;20034;-72
2023/02/17 02:24:25;;;;;;;23.17;16.92;;;9.20;99.90;;;-148.53;100.00;63986.66;4998505;28;20043;-73
2023/02/17 02:27:44;;;;;;;25.38;17.92;;;9.20;99.90;;;-148.53;100.00;63986.66;5009132;28;20040;-73
2023/02/17 02:30:34;;;;;;;27.77;18.73;;;9.20;99.90;;;-148.53;100.00;63986.66;5003741;28;20080;-73
2023/02/17 02:33:12;;;;;;;25.70;17.88;;;9.20;99.90;;;-148.53;100.00;63986.66;5004399;28;20489;-73
2023/02/17 02:35:56;;;;;;;;;;;9.20;99.90;;;-148.53;100.00;63986.66;5002341;28;20102;-73
2023/02/17 02:38:40;;;;;;;25.73;17.35;;;9.20;99.90;;;-148.53;100.00;63986.66;4983265;28;19921;-73
2023/02/17 02:41:22;;;;;;;24.70;17.27;;;9.20;99.90;;;-148.53;100.00;63986.66;4999421;28;20129;-73
2023/02/17 02:43:50;;;;;;;25.85;17.55;;;9.20;99.90;;;-148.53;100.00;63986.66;5001777;28;20381;-74
2023/02/17 02:46:16;;;;;;;25.13;17.73;;;9.20;99.90;;;-148.53;100.00;63986.66;5008055;28;20046;-73
2023/02/17 02:48:44;;;;;;;23.30;17.23;;;9.20;99.90;;;-148.53;100.00;63986.66;5024237;28;20398;-74
2023/02/17 02:51:42;;;;;;;25.35;17.90;;;9.30;99.90;;;-148.53;100.00;63986.66;5008744;28;20041;-73
2023/02/17 02:54:49;;;;;;;25.90;17.30;;;9.20;99.90;;;-148.53;100.00;63986.66;5006959;28;20053;-74
2023/02/17 02:57:46;;;;;;;26.90;18.02;;;9.30;99.90;;;-148.53;100.00;63986.66;5011091;28;20041;-74
2023/02/17 03:00:43;;;;;;;27.58;16.63;;;9.20;99.90;;;-148.53;100.00;63986.66;5005790;28;20033;-73
2023/02/17 03:03:25;;;;;;;25.67;17.20;;;9.30;99.90;;;-148.53;100.00;63986.66;4992674;28;20049;-73
2023/02/17 03:06:28;;;;;;;22.98;16.40;;;9.30;99.90;;;-148.53;100.00;63986.66;5002521;28;20099;-73
2023/02/17 03:09:05;;;;;;;22.90;16.83;;;9.30;99.90;;;-148.53;100.00;63986.66;4993414;28;20117;-74
2023/02/17 03:11:33;;;;;;;22.88;16.38;;;9.30;99.90;;;-148.53;100.00;63986.66;5007298;28;20045;-73
2023/02/17 03:14:06;;;;;;;24.15;16.98;;;9.30;99.90;;;-148.53;100.00;63986.66;5015118;28;20030;-73
2023/02/17 03:16:36;;;;;;;23.23;15.82;;;9.30;99.90;;;-148.53;100.00;63986.66;5005163;28;20482;-73
2023/02/17 03:19:02;;;;;;;23.90;16.77;;;9.40;99.90;;;-148.53;100.00;63986.66;5004663;28;20038;-73
2023/02/17 03:21:51;;;;;;;25.13;16.60;;;9.40;99.90;;;-148.53;100.00;63986.66;5009964;28;20053;-74
2023/02/17 03:24:18;;;;;;;21.60;15.32;;;9.40;99.90;;;-148.53;100.00;63986.66;5003960;28;20462;-74
2023/02/17 03:26:44;;;;;;;22.70;15.98;;;9.40;99.90;;;-148.53;100.00;63986.66;5002272;28;20060;-73
2023/02/17 03:29:10;;;;;;;22.23;15.52;;;9.50;99.90;;;-148.53;100.00;63986.66;5002314;28;20037;-74
2023/02/17 03:31:37;;;;;;;21.58;16.65;;;9.50;99.90;;;-148.53;100.00;63986.66;5015329;28;20410;-73
2023/02/17 03:34:04;;;;;;;23.02;16.70;;;9.50;99.90;;;-148.53;100.00;63986.66;5004533;28;20030;-73
2023/02/17 03:36:29;;;;;;;21.98;16.02;;;9.50;99.90;;;-148.53;100.00;63986.66;4997566;28;20030;-75
2023/02/17 03:38:56;;;;;;;21.77;16.10;;;9.50;99.90;;;-148.53;100.00;63986.66;5003582;28;20042;-74
2023/02/17 03:41:21;;;;;;;21.88;16.45;;;9.50;99.90;;;-148.53;100.00;63986.66;5003468;28;20056;-74
2023/02/17 03:43:47;;;;;;;23.05;16.00;;;9.50;99.90;;;-148.53;100.00;63986.66;5002943;28;20034;-74
2023/02/17 03:46:15;;;;;;;21.58;16.17;;;9.50;99.90;;;-148.53;100.00;63986.66;5005514;28;20054;-75
2023/02/17 03:48:41;;;;;;;22.33;16.45;;;9.50;99.90;;;-148.53;100.00;63986.66;5005767;28;20049;-73
2023/02/17 03:51:18;;;;;;;24.00;17.23;;;9.50;99.90;;;-148.53;100.00;63986.66;5003455;28;20034;-74
2023/02/17 03:53:45;;;;;;;20.73;14.98;;;9.50;99.90;;;-148.53;100.00;63986.66;5004567;28;20464;-74
2023/02/17 03:56:12;;;;;;;21.92;16.38;;;9.60;99.90;;;-148.53;100.00;63986.66;5005079;28;20038;-73
2023/02/17 03:58:39;;;;;;;21.65;16.58;;;9.50;99.90;;;-148.53;100.00;63986.66;5002106;28;20049;-73
2023/02/17 04:01:07;;;;;;;23.13;16.55;;;9.60;99.90;;;-148.53;100.00;63986.66;5005707;28;20108;-73
2023/02/17 04:03:34;;;;;;;22.85;16.33;;;9.60;99.90;;;-148.53;100.00;63986.66;5003504;28;20038;-74
2023/02/17 04:06:00;;;;;;;21.00;15.38;;;9.60;99.90;;;-148.53;100.00;63986.66;5003924;28;20385;-74
2023/02/17 04:08:26;;;;;;;23.23;16.10;;;9.60;99.90;;;-148.53;100.00;63986.66;5003253;28;20121;-74
2023/02/17 04:10:58;;;;;;;21.08;14.98;;;9.60;99.90;;;-148.53;100.00;63986.66;5005595;28;20030;-74
2023/02/17 04:13:24;;;;;;;21.92;15.25;;;9.60;99.90;;;-148.53;100.00;63986.66;5006373;28;20034;-74
2023/02/17 04:15:51;;;;;;;20.73;15.35;;;9.60;99.90;;;-148.53;100.00;63986.66;5005758;28;20100;-74
2023/02/17 04:18:18;;;;;;;19.87;14.47;;;9.60;99.90;;;-148.53;100.00;63986.66;5013406;28;20065;-73
2023/02/17 04:20:44;;;;;;;19.60;15.35;;;9.60;99.90;;;-148.53;100.00;63986.66;5003289;28;20350;-73
2023/02/17 04:23:10;;;;;;;21.42;15.40;;;9.60;99.90;;;-148.53;100.00;63986.66;5008038;28;20042;-74
2023/02/17 04:25:37;;;;;;;19.48;14.30;;;9.70;99.90;;;-148.53;100.00;63986.66;5002288;28;20125;-73
2023/02/17 04:28:04;;;;;;;19.05;14.02;;;9.70;99.90;;;-148.53;100.00;63986.66;5007552;28;20065;-74
2023/02/17 04:30:30;;;;;;;17.73;13.48;;;9.70;99.90;;;-148.53;100.00;63986.66;5004342;28;20092;-73
2023/02/17 04:32:57;;;;;;;20.20;14.77;;;9.70;99.90;;;-148.53;100.00;63986.66;5008999;28;20038;-74
2023/02/17 04:35:23;;;;;;;20.27;14.48;;;9.70;99.90;;;-148.53;100.00;63986.66;4998817;28;20322;-74
2023/02/17 04:37:49;;;;;;;19.60;14.40;;;9.60;99.90;;;-148.53;100.00;63986.66;5004396;28;20042;-74
2023/02/17 04:40:15;;;;;;;18.70;14.25;;;9.60;99.90;;;-148.53;100.00;63986.66;5005646;28;20056;-75
2023/02/17 04:42:41;;;;;;;19.25;13.55;;;9.60;99.90;;;-148.53;100.00;63986.66;5009138;28;20092;-75
2023/02/17 04:45:07;;;;;;;17.40;13.00;;;9.70;99.90;;;-148.53;100.00;63986.66;5002344;28;20041;-75
2023/02/17 04:47:34;;;;;;;17.80;13.48;;;9.70;99.90;;;-148.53;100.00;63986.66;5005235;28;20046;-74
2023/02/17 04:49:59;;;;;;;18.35;13.50;;;9.70;99.90;;;-148.53;100.00;63986.66;4995799;28;20085;-75
2023/02/17 04:52:25;;;;;;;18.75;13.48;;;9.70;99.90;;;-148.53;100.00;63986.66;5008605;28;20062;-75
2023/02/17 04:54:51;;;;;;;18.15;13.98;;;9.70;99.90;;;-148.53;100.00;63986.66;4994145;28;21771;-74
2023/02/17 04:57:17;;;;;;;20.13;14.45;;;9.70;99.90;;;-148.53;100.00;63986.66;5007589;28;20069;-75
2023/02/17 04:59:43;;;;;;;20.75;14.32;;;9.60;99.90;;;-148.53;100.00;63986.66;5007918;28;20049;-75
2023/02/17 05:02:10;;;;;;;19.50;14.55;;;9.70;99.90;;;-148.53;100.00;63986.66;4999288;28;20038;-74
2023/02/17 05:04:36;;;;;;;20.37;14.90;;;9.60;99.90;;;-148.53;100.00;63986.66;5003893;28;20128;-75
2023/02/17 05:07:02;;;;;;;20.67;14.65;;;9.60;99.90;;;-148.53;100.00;63986.66;5011596;28;20113;-75
2023/02/17 05:09:28;;;;;;;19.80;14.45;;;9.60;99.90;;;-148.53;100.00;63986.66;5004235;28;20037;-75
2023/02/17 05:11:53;;;;;;;21.52;15.18;;;9.60;99.90;;;-148.53;100.00;63986.66;4999564;28;20058;-76
2023/02/17 05:14:19;;;;;;;22.50;15.63;;;9.60;99.90;;;-148.53;100.00;63986.66;5010626;28;20046;-75
2023/02/17 05:16:45;;;;;;;20.08;15.07;;;9.60;99.90;;;-148.53;100.00;63986.66;5006102;28;20038;-75
2023/02/17 05:19:11;;;;;;;21.75;15.35;;;9.50;99.90;;;-148.53;100.00;63986.66;5009175;28;20107;-75
2023/02/17 05:21:37;;;;;;;21.45;15.02;;;9.50;99.90;;;-148.53;100.00;63986.66;5002504;28;20053;-75
2023/02/17 05:24:03;;;;;;;23.05;15.45;;;9.50;99.90;;;-148.53;100.00;63986.66;5003872;28;20049;-75
2023/02/17 05:26:29;;;;;;;23.08;15.35;;;9.50;99.90;;;-148.53;100.00;63986.66;5006336;28;20060;-75
2023/02/17 05:28:55;;;;;;;24.25;15.80;;;9.50;99.90;;;-148.53;100.00;63986.66;4998785;28;20121;-75
2023/02/17 05:31:20;;;;;;;22.13;15.52;;;9.50;99.90;;;-148.53;100.00;63986.66;5003233;28;20501;-75
2023/02/17 05:33:46;;;;;;;21.63;14.70;;;9.50;99.90;;;-148.53;100.00;63986.66;5004944;28;20042;-75
2023/02/17 05:36:12;;;;;;;20.15;15.05;;;9.50;99.90;;;-148.53;100.00;63986.66;5004360;28;20038;-75
2023/02/17 05:38:39;;;;;;;22.35;15.27;;;9.50;99.90;;;-148.53;100.00;63986.66;5009438;28;20052;-76
2023/02/17 05:41:05;;;;;;;21.40;15.55;;;9.50;99.90;;;-148.53;100.00;63986.66;5001827;28;20053;-75
2023/02/17 05:43:31;;;;;;;22.55;15.15;;;9.60;99.90;;;-148.53;100.00;63986.66;4998272;28;20529;-75
2023/02/17 05:46:04;;;;;;;21.23;14.90;;;9.60;99.90;;;-148.53;100.00;63986.66;4999563;28;20054;-75
2023/02/17 05:48:31;;;;;;;20.50;14.90;;;9.60;99.90;;;-148.53;100.00;63986.66;5002147;28;20092;-75
2023/02/17 05:50:56;;;;;;;20.92;14.85;;;9.60;99.90;;;-148.53;100.00;63986.66;4998670;28;20500;-75
2023/02/17 05:53:22;;;;;;;20.15;14.32;;;9.60;99.90;;;-148.53;100.00;63986.66;4997820;28;20042;-76
2023/02/17 05:55:48;;;;;;;22.00;14.45;;;9.60;99.90;;;-148.53;100.00;63986.66;5003433;28;20034;-75
2023/02/17 05:58:13;;;;;;;19.67;14.35;;;9.70;99.90;;;-148.53;100.00;63986.66;5009028;28;20034;-75
2023/02/17 06:00:39;;;;;;;18.55;13.98;;;9.70;99.90;;;-148.53;100.00;63986.66;5008517;28;20347;-75
2023/02/17 06:03:05;;;;;;;20.58;13.10;;;9.80;99.90;;;-148.53;100.00;63986.66;5009781;28;20030;-75
2023/02/17 06:05:30;;;;;;;19.92;14.38;;;9.80;99.90;;;-148.53;100.00;63986.66;5002466;28;20042;-76
2023/02/17 06:07:56;;;;;;;21.20;13.93;;;9.80;99.90;;;-148.53;100.00;63986.66;5011108;28;20482;-76
2023/02/17 06:10:22;;;;;;;18.58;13.73;;;9.90;99.90;;;-148.53;100.00;63986.66;4996869;28;20454;-76
2023/02/17 06:12:48;;;;;;;21.90;15.02;;;9.90;99.90;;;-148.53;100.00;63986.66;5002278;28;20042;-76
2023/02/17 06:15:13;;;;;;;22.08;14.57;;;9.90;99.90;;;-148.53;100.00;63986.66;5009693;28;20061;-76
2023/02/17 06:17:39;;;;;;;21.65;14.40;;;10.00;99.90;;;-148.53;100.00;63986.66;5002002;28;20048;-76
2023/02/17 06:20:06;;;;;;;19.02;13.77;;;10.00;99.90;;;-148.53;100.00;63986.66;5008518;28;20080;-74
2023/02/17 06:22:32;;;;;;;20.13;14.57;;;10.00;99.90;;;-148.53;100.00;63986.66;5007794;28;20101;-73
2023/02/17 06:24:58;;;;;;;18.40;13.73;;;10.20;99.90;;;-148.53;100.00;63986.66;4999926;28;20494;-73
2023/02/17 06:27:24;;;;;;;20.23;14.20;;;10.20;99.90;;;-148.53;100.00;63986.66;5009505;28;20034;-73
2023/02/17 06:29:49;;;;;;;18.92;13.20;;;10.10;99.90;;;-148.53;100.00;63986.66;5002286;28;20046;-73
2023/02/17 06:32:16;;;;;;;20.10;14.57;;;10.30;99.90;;;-148.53;100.00;63986.66;5003317;28;20045;-77
2023/02/17 06:34:41;;;;;;;20.00;13.73;;;10.30;99.90;;;-148.53;100.00;63986.66;5002485;28;20077;-73
2023/02/17 06:37:07;;;;;;;20.30;14.32;;;10.30;99.90;;;-148.53;100.00;63986.66;5005920;28;20076;-73
2023/02/17 06:39:33;;;;;;;20.48;14.63;;;10.30;99.90;;;-148.53;100.00;63986.66;5002509;28;20034;-74
2023/02/17 06:41:58;;;;;;;22.25;15.55;;;10.30;99.90;;;-148.53;100.00;63986.66;4999313;28;20049;-74
2023/02/17 06:44:24;;;;;;;22.48;15.55;;;10.40;99.90;;;-148.53;100.00;63986.66;5008816;28;20076;-76
2023/02/17 06:46:50;;;;;;;21.00;14.90;;;10.40;99.90;;;-148.53;100.00;63986.66;5000299;28;20497;-74
2023/02/17 06:49:16;;;;;;;19.60;14.50;;;10.50;99.90;;;-148.53;100.00;63986.66;5005204;28;20049;-75
2023/02/17 06:51:42;;;;;;;19.58;14.20;;;10.60;99.90;;;-148.53;100.00;63986.66;5002412;28;20048;-75
2023/02/17 06:54:07;;;;;;;21.52;15.38;;;10.60;99.90;;;-148.53;100.00;63986.66;4997846;28;20528;-75
2023/02/17 06:56:33;;;;;;;23.92;15.35;;;10.70;99.90;;;-148.53;100.00;63986.66;5001941;28;20501;-74
2023/02/17 06:59:00;;;;;;;22.05;14.73;;;10.70;99.90;;;-148.53;100.00;63986.66;4998997;28;20030;-75
2023/02/17 07:01:26;;;;;;;22.25;15.77;;;10.70;99.90;;;-148.53;100.00;63986.66;5005581;28;20049;-76
2023/02/17 07:03:53;;;;;;;21.77;15.27;;;10.70;99.90;;;-148.53;100.00;63986.66;4998085;28;20046;-77
2023/02/17 07:06:20;;;;;;;22.00;15.88;;;10.70;99.90;;;-148.53;100.00;63986.66;4998192;28;20494;-73
2023/02/17 07:08:46;;;;;;;20.55;14.93;;;10.80;99.90;;;-148.53;100.00;63986.66;5009411;28;20045;-76
2023/02/17 07:11:14;;;;;;;22.77;16.50;;;10.70;99.90;;;-148.53;100.00;63986.66;5003043;28;20053;-73
2023/02/17 07:13:41;;;;;;;22.15;15.57;;;10.80;99.90;;;-148.53;100.00;63986.66;5007793;28;20037;-74
2023/02/17 07:16:08;;;;;;;22.27;15.48;;;10.80;99.90;;;-148.53;100.00;63986.66;4997615;28;20038;-74
2023/02/17 07:18:37;;;;;;;20.17;15.55;;;10.70;99.90;;;-148.53;100.00;63986.66;5000360;28;20033;-73
2023/02/17 07:21:08;;;;;;;20.60;15.27;;;10.80;99.90;;;-148.53;100.00;63986.66;5004152;28;20030;-73
2023/02/17 07:23:35;;;;;;;19.95;14.25;;;10.80;99.90;;;-148.53;100.00;63986.66;5004439;28;20478;-76
2023/02/17 07:26:03;;;;;;;19.50;14.23;;;10.90;99.90;;;-148.53;100.00;63986.66;4997632;28;20121;-75
2023/02/17 07:28:29;;;;;;;20.45;14.73;;;10.80;99.90;;;-148.53;100.00;63986.66;5017725;28;20038;-73
2023/02/17 07:30:55;;;;;;;20.88;14.05;;;10.90;99.90;;;-148.53;100.00;63986.66;5005703;28;20046;-74
2023/02/17 07:33:20;;;;;;;18.85;13.68;;;10.90;99.90;;;-148.53;100.00;63986.66;5012900;28;20030;-74
2023/02/17 07:35:47;;;;;;;18.30;13.27;;;10.90;99.90;;;-148.53;100.00;63986.66;5002682;28;20121;-74
2023/02/17 07:38:13;;;;;;;20.15;13.93;;;10.80;99.90;;;-148.53;100.00;63986.66;5004388;28;20042;-74
2023/02/17 07:40:38;;;;;;;17.35;13.50;;;10.80;99.90;;;-148.53;100.00;63986.66;5009371;28;20034;-74
2023/02/17 07:43:04;;;;;;;23.75;15.80;;;10.80;99.90;;;-148.53;100.00;63986.66;5006074;28;20034;-73
2023/02/17 07:45:30;;;;;;;24.02;16.83;;;10.80;99.90;;;-148.53;100.00;63986.66;5001658;28;20045;-74
2023/02/17 07:47:56;;;;;;;25.23;17.10;;;10.80;99.90;;;-148.53;100.00;63986.66;5004590;28;20038;-74
2023/02/17 07:50:21;;;;;;;25.23;18.02;;;10.80;99.90;;;-148.53;100.00;63986.66;5011534;28;20065;-73
2023/02/17 07:52:47;;;;;;;23.73;16.75;;;10.90;99.90;;;-148.53;100.00;63986.66;5005060;28;20077;-73
2023/02/17 07:55:13;;;;;;;23.88;17.40;;;10.90;99.90;;;-148.53;100.00;63986.66;5002534;28;20073;-73
2023/02/17 07:57:39;;;;;;;23.27;16.83;;;10.90;99.90;;;-148.53;100.00;63986.66;5006900;28;20046;-73
2023/02/17 08:00:05;;;;;;;24.90;18.00;;;10.90;99.90;;;-148.53;100.00;63986.66;5004795;28;20046;-73
2023/02/17 08:02:38;;;;;;;21.42;15.95;;;11.00;99.90;;;-148.53;100.00;63986.66;5004988;28;20497;-73
2023/02/17 08:05:04;;;;;;;23.58;17.33;;;11.00;99.90;;;-148.53;100.00;63986.66;5002394;28;20040;-73
2023/02/17 08:07:31;;;;;;;24.88;18.35;;;11.00;99.90;;;-148.53;100.00;63986.66;5013301;28;20490;-73
2023/02/17 08:15:34;;;;;;;20.77;14.93;;;11.00;99.90;;;-148.53;100.00;63986.66;5018453;28;20052;-73
2023/02/17 08:18:00;;;;;;;20.70;14.98;;;11.10;99.90;;;-148.53;100.00;63986.66;5001734;28;20038;-74
2023/02/17 08:20:27;;;;;;;20.88;14.02;;;11.10;99.90;;;-148.53;100.00;63986.66;5009945;28;20041;-73
2023/02/17 08:22:52;;;;;;;21.38;14.50;;;11.10;99.90;;;-148.53;100.00;63986.66;5025194;28;20117;-73
2023/02/17 08:25:18;;;;;;;19.67;14.55;;;11.10;99.90;;;-148.53;100.00;63986.66;5004793;28;20080;-73
2023/02/17 08:27:44;;;;;;;19.67;14.77;;;11.10;99.90;;;-148.53;100.00;63986.66;5006255;28;20371;-73
2023/02/17 08:30:10;;;;;;;19.23;14.25;;;11.10;99.90;;;-148.53;100.00;63986.66;5002452;28;20041;-74
2023/02/17 08:32:36;;;;;;;18.35;14.10;;;11.10;99.90;;;-148.53;100.00;63986.66;5006282;28;20444;-74
2023/02/17 08:35:02;;;;;;;19.45;13.73;;;11.10;99.90;;;-148.53;100.00;63986.66;5003842;28;20037;-73
2023/02/17 08:37:29;;;;;;;17.98;13.30;;;11.20;99.90;;;-148.53;100.00;63986.66;5008543;28;20248;-74
2023/02/17 08:39:55;;;;;;;17.25;12.27;;;11.20;99.90;;;-148.53;100.00;63986.66;5004678;28;20041;-73
2023/02/17 08:42:21;;;;;;;17.63;13.15;;;11.20;99.90;;;-148.53;100.00;63986.66;5005477;28;20038;-74
2023/02/17 08:44:47;;;;;;;16.05;12.32;;;11.20;99.90;;;-148.53;100.00;63986.66;5018442;28;20038;-74
2023/02/17 08:47:14;;;;;;;19.60;12.57;;;11.20;99.90;;;-148.53;100.00;63986.66;5004540;28;20501;-74
2023/02/17 08:49:39;;;;;;;19.60;12.30;;;11.20;99.90;;;-148.53;100.00;63986.66;5006923;28;20042;-73
2023/02/17 08:52:05;;;;;;;16.90;12.07;;;11.20;99.90;;;-148.53;100.00;63986.66;5001106;28;20427;-73
2023/02/17 08:54:31;;;;;;;17.58;11.40;;;11.30;99.90;;;-148.53;100.00;63986.66;4998250;28;20053;-74
2023/02/17 08:56:57;;;;;;;17.08;11.88;;;11.20;99.90;;;-148.53;100.00;63986.66;5002479;28;20371;-74
2023/02/17 08:59:23;;;;;;;17.02;11.13;;;11.20;99.90;;;-148.53;100.00;63986.66;4999615;28;20048;-74
2023/02/17 09:01:49;;;;;;;16.95;11.52;;;11.20;99.90;;;-148.53;100.00;63986.66;5001801;28;20045;-73
2023/02/17 09:04:16;;;;;;;17.40;11.50;;;11.30;99.90;;;-148.53;100.00;63986.66;5003674;28;20038;-73
2023/02/17 09:06:46;;;;;;;15.38;11.05;;;11.30;99.90;;;-148.53;100.00;63986.66;4997098;28;20081;-74
2023/02/17 09:09:15;;;;;;;14.23;10.00;;;11.20;99.90;;;-148.53;100.00;63986.66;4999876;28;20092;-73
2023/02/17 09:11:42;;;;;;;16.38;11.98;;;11.30;99.90;;;-148.53;100.00;63986.66;5001272;28;20045;-74
2023/02/17 09:14:08;;;;;;;14.77;10.63;;;11.30;99.90;;;-148.53;100.00;63986.66;5004730;28;20041;-73
2023/02/17 09:16:35;;;;;;;13.82;10.38;;;11.30;99.90;;;-148.53;100.00;63986.66;5004486;28;20032;-73
2023/02/17 09:19:01;;;;;;;14.75;10.00;;;11.30;99.90;;;-148.53;100.00;63986.66;5007745;28;20038;-73
2023/02/17 09:21:26;;;;;;;14.57;10.07;;;11.30;99.90;;;-148.53;100.00;63986.66;5003771;28;20053;-75
2023/02/17 09:23:55;;;;;;;13.85;9.35;;;11.30;99.90;;;-148.53;100.00;63986.66;5008160;28;20084;-74
2023/02/17 09:26:21;;;;;;;11.75;9.13;;;11.30;99.90;;;-148.53;100.00;63986.66;5008808;28;20037;-74
2023/02/17 09:28:47;;;;;;;14.55;9.82;;;11.30;99.90;;;-148.53;100.00;63986.66;4998141;28;20184;-75
2023/02/17 09:31:23;;;;;;;13.00;9.13;;;11.40;99.90;;;-148.53;100.00;63986.66;5007496;28;20030;-75
2023/02/17 09:33:50;;;;;;;15.02;10.02;;;11.40;99.90;;;-148.53;100.00;63986.66;5004577;28;20041;-74
2023/02/17 09:36:23;;;;;;;11.95;9.15;;;11.40;99.90;;;-148.53;100.00;63986.66;5009723;28;20048;-74
2023/02/17 09:38:50;;;;;;;12.35;8.77;;;11.40;99.90;;;-148.53;100.00;63986.66;5010263;28;20030;-74
2023/02/17 09:41:35;;;;;;;12.48;8.45;;;11.50;99.90;;;-148.53;100.00;63986.66;5000340;28;20042;-74
2023/02/17 09:44:01;;;;;;;11.57;8.45;;;11.50;99.90;;;-148.53;100.00;63986.66;4996196;28;20074;-74
2023/02/17 09:46:34;;;;;;;12.52;8.60;;;11.50;99.90;;;-148.53;100.00;63986.66;5007165;28;20054;-74
2023/02/17 09:49:10;;;;;;;10.85;8.50;;;11.50;99.90;;;-148.53;100.00;63986.66;5007298;28;20477;-73
2023/02/17 09:52:31;;;;;;;11.27;8.27;;;11.50;99.90;;;-148.53;100.00;63986.66;5007747;28;20048;-75
2023/02/17 09:55:17;;;;;;;10.27;8.05;;;11.60;99.90;;;-148.53;100.00;63986.66;4998783;28;20051;-74
2023/02/17 09:58:00;;;;;;;10.32;7.78;;;11.70;99.90;;;-148.53;100.00;63986.66;4994114;28;20053;-75
2023/02/17 10:00:37;;;;;;;10.93;7.90;;;11.70;99.90;;;-148.53;100.00;63986.66;5000397;28;20029;-75
2023/02/17 10:03:34;;;;;;;11.23;7.70;;;11.80;99.90;;;-148.53;100.00;63986.66;5002642;28;20053;-75
2023/02/17 10:06:11;;;;;;;9.98;7.68;;;11.80;99.90;;;-148.53;100.00;63986.66;5006150;28;20026;-73
2023/02/17 10:09:20;;;;;;;10.88;7.95;;;11.80;99.90;;;-148.53;100.00;63986.66;5003831;28;20477;-73